< < Back
Terminal Aerodrome Forecast


Current Version              Previous Versions:   1  2  3  4  5  6  7  8  9  

Terminal Aerodrome Forecast

072
FTUS44 KBMX 170500
TAFANB
TAF
KANB 170520Z 1706/1806 07003KT P6SM BKN250
     FM171200 09010KT P6SM SCT050
     FM180000 08005KT P6SM BKN050=

Latest METAR

073
SAUS70 KWBC 170700 RRC
MTRANB
METAR KANB 170653Z AUTO 05006KT 10SM CLR 09/01 A3029 RMK AO2 SLP257
T00890006


USA.gov is the U.S. government's official web portal to all federal, state and local government web resources and services.